Data for 10/25/2005

Time Sea-Level Adjusted Pressure Absolute Pressure Temperature Relative Humidity Dew Point   
(mb) (inHg) (mb) (inHg) (C) (F) (%) (C) (F)
00:05 1022 30.18 851 25.13 10.3 50.6 49 0.2 32.3
00:10 1022 30.18 851 25.13 10.1 50.1 49 -0 31.9
00:15 1022 30.18 851 25.13 10.2 50.4 49 0.1 32.1
00:20 1022 30.18 851 25.13 10.3 50.5 49 0 32.1
00:25 1022 30.18 851 25.13 10.4 50.7 49 0.1 32.2
00:30 1022 30.18 851 25.13 10.1 50.3 50 0.3 32.5
00:35 1022 30.18 851 25.13 9.9 49.7 51 0.1 32.2
00:40 1022 30.18 851 25.13 9.8 49.6 50 -0 31.9
00:45 1022 30.18 851 25.13 9.9 49.8 51 0.2 32.3
00:50 1022 30.18 851 25.13 9.8 49.6 50 -0.3 31.5
00:55 1022 30.18 851 25.13 9.8 49.7 50 -0.1 31.9
01:00 1022 30.18 851 25.13 9.6 49.2 52 0.1 32.2
01:05 1022 30.18 851 25.13 9.2 48.6 52 0 32
01:10 1022 30.18 851 25.13 9.1 48.3 52 -0.2 31.6
01:15 1022 30.18 851 25.13 8.8 47.9 55 0.2 32.4
01:20 1022 30.18 851 25.13 8.1 46.5 58 0.3 32.5
01:25 1022 30.18 851 25.13 7.9 46.2 57 0 32.1
01:30 1022 30.18 851 25.13 8 46.3 58 0.1 32.3
01:35 1022 30.18 851 25.13 7.5 45.4 60 0.1 32.2
01:40 1022 30.18 851 25.13 7.2 45 60 0.1 32.1
01:45 1022 30.18 851 25.13 7.3 45.2 59 -0.1 31.8
01:50 1022 30.18 851 25.13 7.6 45.6 58 -0.2 31.6
01:55 1022 30.18 851 25.13 8.3 47 54 -0.4 31.3
02:00 1022 30.18 851 25.13 8.5 47.3 55 -0.1 31.9
02:05 1022 30.18 851 25.13 8.6 47.6 51 -0.8 30.6
02:10 1022 30.18 851 25.13 9.5 49 49 -0.7 30.7
02:15 1022 30.18 851 25.13 9.9 49.8 48 -0.6 31
02:20 1022 30.18 851 25.13 9.8 49.7 49 -0.3 31.4
02:25 1022 30.18 851 25.13 9.6 49.2 51 -0.1 31.8
02:30 1022 30.18 851 25.13 9.4 48.9 50 -0.6 31
02:35 1022 30.18 851 25.13 10.1 50.1 49 -0.2 31.6
02:40 1022 30.18 851 25.13 10.1 50.2 49 -0.2 31.7
02:45 1022 30.18 851 25.13 9.8 49.6 50 -0.1 31.9
02:50 1022 30.18 851 25.13 9.4 48.9 51 -0.1 31.9
02:55 1022 30.18 851 25.13 9.1 48.4 53 0 32
03:00 1022 30.18 851 25.13 9.1 48.3 52 -0.2 31.7
03:05 1022 30.18 851 25.13 9.1 48.3 52 -0.1 31.7
03:10 1022 30.18 851 25.13 9.1 48.4 52 -0.2 31.7
03:15 1022 30.18 851 25.13 9.2 48.5 52 -0.1 31.8
03:20 1022 30.18 851 25.13 8.8 47.9 53 -0.2 31.7
03:25 1022 30.18 851 25.13 8.6 47.4 54 -0.3 31.5
03:30 1021 30.15 851 25.13 8.7 47.7 52 -0.6 30.9
03:35 1021 30.15 851 25.13 8.9 48.1 52 -0.3 31.5
03:40 1021 30.15 851 25.13 9 48.1 52 -0.3 31.5
03:45 1021 30.15 851 25.13 8.9 48 53 -0.3 31.5
03:50 1021 30.15 851 25.13 8.8 47.9 53 -0.2 31.7
03:55 1021 30.15 850 25.1 8.6 47.6 53 -0.3 31.4
04:00 1021 30.15 850 25.1 8.4 47.1 54 -0.4 31.2
04:05 1021 30.15 850 25.1 8.8 47.9 52 -0.4 31.3
04:10 1021 30.15 850 25.1 8.8 47.8 53 -0.3 31.5
04:15 1021 30.15 850 25.1 8.7 47.7 53 -0.3 31.4
04:20 1021 30.15 850 25.1 8.6 47.5 52 -0.5 31.1
04:25 1021 30.15 850 25.1 8.8 47.9 52 -0.6 31
04:30 1021 30.15 850 25.1 8.9 48.1 51 -0.6 30.9
04:35 1021 30.15 850 25.1 9 48.1 50 -0.9 30.4
04:40 1021 30.15 850 25.1 9.1 48.3 50 -0.8 30.5
04:45 1021 30.15 850 25.1 9.2 48.6 49 -0.8 30.5
04:50 1021 30.15 850 25.1 9.5 49.2 47 -1 30.1
04:55 1021 30.15 850 25.1 9.8 49.6 48 -0.6 30.8
05:00 1021 30.15 850 25.1 9.3 48.8 49 -0.8 30.5
05:05 1021 30.15 850 25.1 9.1 48.4 48 -1.2 29.8
05:10 1021 30.15 850 25.1 8.7 47.7 51 -0.8 30.5
05:15 1021 30.15 850 25.1 7.7 45.8 53 -1.4 29.5
05:20 1021 30.15 850 25.1 7.4 45.3 54 -1.2 29.8
05:25 1021 30.15 850 25.1 6.8 44.2 58 -0.9 30.4
05:30 1021 30.15 850 25.1 6.5 43.8 58 -1.2 29.9
05:35 1021 30.15 850 25.1 7.2 44.9 54 -1.6 29.2
05:40 1021 30.15 850 25.1 6.9 44.4 56 -1.2 29.8
05:45 1021 30.15 850 25.1 7 44.6 51 -2.5 27.6
05:50 1021 30.15 850 25.1 8.1 46.6 49 -2 28.4
05:55 1021 30.15 850 25.1 8.2 46.7 50 -1.7 29
06:00 1021 30.15 850 25.1 8.2 46.7 50 -1.5 29.3
06:05 1021 30.15 850 25.1 7.9 46.3 52 -1.3 29.7
06:10 1021 30.15 850 25.1 7.8 46 52 -1.4 29.4
06:15 1021 30.15 850 25.1 7.6 45.7 52 -1.5 29.4
06:20 1021 30.15 850 25.1 8.1 46.5 53 -0.9 30.3
06:25 1021 30.15 850 25.1 8 46.4 53 -1 30.2
06:30 1021 30.15 850 25.1 7.7 45.8 55 -0.7 30.7
06:35 1021 30.15 850 25.1 7.5 45.5 55 -0.9 30.5
06:40 1021 30.15 850 25.1 7.2 44.9 56 -1 30.2
06:45 1021 30.15 850 25.1 6.9 44.4 57 -1 30.2
06:50 1021 30.15 850 25.1 7.1 44.8 56 -1.2 29.9
06:55 1021 30.15 850 25.1 7.3 45.1 55 -1.1 30
07:00 1021 30.15 850 25.1 7 44.6 57 -1 30.2
07:05 1021 30.15 850 25.1 6.7 44 58 -1.1 30.1
07:10 1021 30.15 850 25.1 7 44.6 55 -1.3 29.6
07:15 1021 30.15 850 25.1 7 44.5 55 -1.3 29.6
07:20 1021 30.15 850 25.1 6.5 43.8 56 -1.5 29.4
07:25 1021 30.15 850 25.1 6.1 43 58 -1.6 29.2
07:30 1021 30.15 850 25.1 6.1 43 56 -2 28.4
07:35 1021 30.15 850 25.1 6.2 43.1 57 -1.7 29
07:40 1021 30.15 850 25.1 5.9 42.7 57 -1.8 28.7
07:45 1021 30.15 850 25.1 5.8 42.4 55 -2.5 27.4
07:50 1021 30.15 850 25.1 6.4 43.5 54 -2.2 28.1
07:55 1021 30.15 850 25.1 7.2 44.9 53 -1.8 28.8
08:00 1021 30.15 850 25.1 7.5 45.5 53 -1.4 29.6
08:05 1021 30.15 850 25.1 7.2 44.9 54 -1.4 29.4
08:10 1021 30.15 850 25.1 6.9 44.5 56 -1.3 29.6
08:15 1021 30.15 850 25.1 6.7 44.1 55 -1.6 29.2
08:20 1021 30.15 850 25.1 6.7 44.1 55 -1.6 29.1
08:25 1021 30.15 850 25.1 7.1 44.7 53 -1.7 28.9
08:30 1021 30.15 850 25.1 7 44.5 54 -1.7 29
08:35 1021 30.15 850 25.1 7.1 44.8 52 -2 28.4
08:40 1021 30.15 850 25.1 7.5 45.4 51 -2 28.3
08:45 1021 30.15 850 25.1 6.8 44.2 55 -1.7 29
08:50 1021 30.15 850 25.1 6.3 43.3 55 -2.1 28.3
08:55 1021 30.15 850 25.1 6.6 43.9 54 -1.9 28.6
09:00 1021 30.15 850 25.1 6.7 44.1 55 -1.6 29.2
09:05 1021 30.15 850 25.1 6.8 44.3 55 -1.6 29.1
09:10 1021 30.15 850 25.1 7.2 44.9 52 -2 28.5
09:15 1021 30.15 850 25.1 7.3 45.2 52 -1.8 28.7
09:20 1021 30.15 850 25.1 7.1 44.8 54 -1.6 29
09:25 1021 30.15 850 25.1 7.3 45.1 52 -1.8 28.7
09:30 1021 30.15 850 25.1 7.6 45.7 53 -1.5 29.4
09:35 1021 30.15 850 25.1 7.8 46 52 -1.3 29.7
09:40 1021 30.15 850 25.1 7.8 46 54 -0.8 30.5
09:45 1021 30.15 850 25.1 7.7 45.9 55 -0.8 30.5
09:50 1021 30.15 850 25.1 8.3 47 52 -1 30.3
09:55 1021 30.15 850 25.1 8.9 48 51 -0.7 30.7
10:00 1021 30.15 850 25.1 9.6 49.4 49 -0.6 31
10:05 1020 30.12 850 25.1 10 49.9 47 -0.7 30.8
10:10 1020 30.12 850 25.1 11 51.9 44 -0.8 30.5
10:15 1020 30.12 850 25.1 11.6 52.8 43 -0.6 30.9
10:20 1020 30.12 850 25.1 12 53.5 41 -1 30.3
10:25 1020 30.12 850 25.1 12.7 54.9 39 -0.8 30.5
10:30 1020 30.12 850 25.1 12.6 54.7 40 -0.6 30.9
10:35 1020 30.12 850 25.1 12.8 55.1 39 -0.7 30.8
10:40 1020 30.12 849 25.07 13.4 56 38 -0.6 30.9
10:45 1020 30.12 849 25.07 14.1 57.4 36 -0.7 30.7
10:50 1020 30.12 849 25.07 14.5 58.2 34 -1 30.1
10:55 1020 30.12 849 25.07 14.5 58 36 -0.5 31.2
11:00 1020 30.12 849 25.07 14.1 57.4 38 -0 31.9
11:05 1020 30.12 849 25.07 13.5 56.4 38 -0.3 31.4
11:10 1020 30.12 849 25.07 13.4 56.2 39 -0.2 31.6
11:15 1020 30.12 849 25.07 13.5 56.3 38 -0.3 31.4
11:20 1020 30.12 849 25.07 13.9 57 38 -0.2 31.6
11:25 1020 30.12 849 25.07 14.5 58.1 37 0.1 32.2
11:30 1020 30.12 849 25.07 14.8 58.7 36 -0.1 31.8
11:35 1020 30.12 849 25.07 14.9 58.8 35 -0.4 31.3
11:40 1020 30.12 849 25.07 14.9 58.7 34 -0.9 30.4
11:45 1020 30.12 849 25.07 15.4 59.7 34 -0.5 31.2
11:50 1020 30.12 849 25.07 15.7 60.2 33 -0.5 31.1
11:55 1020 30.12 849 25.07 15.5 59.9 33 -0.7 30.8
12:00 1020 30.12 849 25.07 14.8 58.6 34 -0.8 30.5
12:05 1019 30.09 849 25.07 15.2 59.3 33 -1 30.3
12:10 1019 30.09 849 25.07 15.2 59.3 33 -0.9 30.3
12:15 1019 30.09 849 25.07 16 60.8 32 -0.5 31
12:20 1019 30.09 848 25.04 16.1 60.9 33 -0.1 31.9
12:25 1019 30.09 848 25.04 16.2 61.2 34 0.4 32.7
12:30 1019 30.09 848 25.04 16.1 61 35 0.8 33.4
12:35 1019 30.09 848 25.04 15.6 60 35 0.2 32.3
12:40 1019 30.09 848 25.04 16.4 61.4 33 0.3 32.5
12:45 1019 30.09 848 25.04 16.9 62.5 33 0.5 32.9
12:50 1019 30.09 848 25.04 17 62.6 33 0.8 33.4
12:55 1019 30.09 848 25.04 17.4 63.2 32 0.8 33.4
13:00 1019 30.09 848 25.04 17.3 63.1 33 1 33.8
13:05 1019 30.09 848 25.04 16.9 62.5 33 0.8 33.5
13:10 1019 30.09 848 25.04 17.2 63 33 0.9 33.6
13:15 1018 30.06 848 25.04 17.6 63.7 33 1.1 34
13:20 1018 30.06 848 25.04 17.4 63.2 33 1.1 34
13:25 1018 30.06 848 25.04 17.3 63.2 34 1.3 34.3
13:30 1018 30.06 847 25.01 16.9 62.4 35 1.4 34.5
13:35 1018 30.06 847 25.01 17.3 63.1 34 1.3 34.3
13:40 1018 30.06 847 25.01 16.9 62.3 35 1.3 34.3
13:45 1018 30.06 847 25.01 17 62.7 35 1.4 34.5
13:50 1018 30.06 847 25.01 17.2 63 35 1.7 35
13:55 1018 30.06 847 25.01 16.9 62.5 35 1.5 34.7
14:00 1018 30.06 847 25.01 16.4 61.6 37 1.7 35.1
14:05 1018 30.06 847 25.01 16.6 61.9 35 1.3 34.3
14:10 1018 30.06 847 25.01 16.9 62.4 35 1.4 34.6
14:15 1018 30.06 847 25.01 17 62.6 34 1.3 34.4
14:20 1018 30.06 847 25.01 16.5 61.7 35 1.2 34.2
14:25 1018 30.06 847 25.01 16.7 62 34 0.9 33.6
14:30 1017 30.03 847 25.01 17.6 63.6 32 0.6 33.1
14:35 1017 30.03 847 25.01 17.9 64.2 33 1.4 34.5
14:40 1017 30.03 847 25.01 17.6 63.8 33 1.1 34.1
14:45 1017 30.03 846 24.98 18.1 64.7 31 1 33.9
14:50 1017 30.03 846 24.98 17.9 64.2 32 0.9 33.7
14:55 1017 30.03 846 24.98 18.5 65.2 31 1 33.8
15:00 1017 30.03 846 24.98 18.5 65.3 32 1.4 34.6
15:05 1017 30.03 846 24.98 18 64.3 33 1.5 34.6
15:10 1017 30.03 846 24.98 17.9 64.2 33 1.4 34.4
15:15 1017 30.03 846 24.98 17.7 63.8 33 1.4 34.6
15:20 1017 30.03 846 24.98 18 64.5 32 1.3 34.4
15:25 1017 30.03 846 24.98 18.4 65 32 1.4 34.6
15:30 1017 30.03 846 24.98 18.5 65.4 31 1.4 34.5
15:35 1017 30.03 846 24.98 19.3 66.7 30 1.2 34.2
15:40 1017 30.03 846 24.98 19.5 67.2 30 1.7 35.1
15:45 1017 30.03 846 24.98 19 66.2 31 1.4 34.6
15:50 1017 30.03 846 24.98 18.8 65.9 31 1.3 34.3
15:55 1017 30.03 846 24.98 19 66.1 30 1.2 34.2
16:00 1016 30 846 24.98 19.5 67.2 29 1.3 34.4
16:05 1016 30 846 24.98 19.7 67.5 30 1.7 35
16:10 1016 30 845 24.95 20.1 68.2 29 1.6 34.9
16:15 1016 30 845 24.95 20.5 68.8 30 2.3 36.1
16:20 1016 30 845 24.95 20.2 68.3 30 2.2 36
16:25 1016 30 845 24.95 19.1 66.4 32 2.2 36
16:30 1016 30 845 24.95 18.2 64.8 33 1.7 35.1
16:35 1016 30 845 24.95 18.2 64.7 33 1.9 35.4
16:40 1016 30 845 24.95 18.1 64.6 33 1.9 35.5
16:45 1016 30 845 24.95 18.1 64.5 34 1.9 35.5
16:50 1016 30 845 24.95 17.9 64.2 34 2.1 35.7
16:55 1016 30 845 24.95 17.6 63.7 35 1.9 35.5
17:00 1016 30 845 24.95 17.5 63.5 35 1.9 35.5
17:05 1016 30 845 24.95 17.3 63.2 37 2.7 36.9
17:10 1016 30 845 24.95 17.7 63.9 35 2.2 36
17:15 1016 30 845 24.95 17.6 63.7 36 2.3 36.2
17:20 1016 30 845 24.95 17.5 63.6 35 2.2 35.9
17:25 1016 30 845 24.95 17.3 63.2 37 2.6 36.6
17:30 1016 30 845 24.95 17.1 62.9 37 2.4 36.4
17:35 1016 30 845 24.95 16.9 62.5 38 2.6 36.6
17:40 1016 30 845 24.95 16.7 62 38 2.4 36.3
17:45 1016 30 845 24.95 16.6 61.9 38 2.5 36.5
17:50 1016 30 845 24.95 16.7 62.1 40 3.3 37.9
17:55 1016 30 845 24.95 16.6 61.9 44 4.4 40
18:00 1016 30 845 24.95 16.7 62 39 2.8 37.1
18:05 1016 30 845 24.95 16.4 61.6 41 3.2 37.8
18:10 1016 30 845 24.95 16.1 60.9 41 3 37.5
18:15 1016 30 845 24.95 15.8 60.4 43 3.4 38.2
18:20 1016 30 845 24.95 15.5 59.9 47 4.3 39.7
18:25 1016 30 845 24.95 15 59 52 5.4 41.8
18:30 1016 30 845 24.95 14.8 58.6 50 4.6 40.3
18:35 1016 30 845 24.95 14.7 58.4 45 3.1 37.6
18:40 1016 30 845 24.95 14.7 58.4 40 1.2 34.2
18:45 1016 30 845 24.95 15 59 36 0.3 32.5
18:50 1016 30 845 24.95 15.2 59.4 34 -0.4 31.2
18:55 1016 30 845 24.95 15.4 59.8 33 -0.5 31.1
19:00 1016 30 845 24.95 15.3 59.6 34 -0.4 31.2
19:05 1016 30 845 24.95 15.2 59.3 34 -0.6 30.9
19:10 1016 30 845 24.95 15.4 59.6 33 -0.7 30.8
19:15 1016 30 845 24.95 15.4 59.7 34 -0.4 31.3
19:20 1016 30 845 24.95 15.3 59.6 34 -0.2 31.7
19:25 1016 30 845 24.95 15.2 59.4 35 0 32
19:30 1016 30 845 24.95 15.2 59.4 35 0 32.1
19:35 1016 30 845 24.95 15.2 59.3 35 0.1 32.2
19:40 1016 30 845 24.95 15.1 59.3 35 0 32
19:45 1016 30 845 24.95 15.2 59.3 35 0 32.1
19:50 1016 30 845 24.95 15.2 59.4 35 -0 31.9
19:55 1016 30 845 24.95 15.2 59.4 35 0 32.1
20:00 1016 30 845 24.95 15.2 59.3 36 0.4 32.7
20:05 1016 30 845 24.95 14.9 58.9 37 0.3 32.6
20:10 1016 30 845 24.95 14.8 58.6 37 0.4 32.7
20:15 1016 30 845 24.95 14.5 58.1 38 0.5 32.9
20:20 1016 30 845 24.95 14.1 57.4 39 0.6 33.1
20:25 1016 30 845 24.95 13.8 56.9 40 0.4 32.8
20:30 1016 30 845 24.95 14 57.2 37 -0.3 31.5
20:35 1016 30 845 24.95 14.5 58.1 35 -0.6 31
20:40 1016 30 845 24.95 14.6 58.2 35 -0.8 30.5
20:45 1016 30 845 24.95 14.6 58.4 35 -0.7 30.8
20:50 1016 30 845 24.95 14.5 58.2 35 -0.8 30.6
20:55 1016 30 845 24.95 14.5 58.1 35 -0.8 30.6
21:00 1016 30 845 24.95 14.4 57.9 35 -0.9 30.4
21:05 1016 30 845 24.95 14.3 57.7 35 -0.8 30.6
21:10 1016 30 845 24.95 14 57.1 41 1 33.8
21:15 1016 30 845 24.95 13.2 55.8 42 0.5 32.9
21:20 1016 30 845 24.95 12.8 55.1 42 0.3 32.6
21:25 1016 30 845 24.95 13.1 55.6 40 -0.1 31.8
21:30 1016 30 845 24.95 13.4 56.1 40 0.1 32.1
21:35 1016 30 845 24.95 13.5 56.3 40 0.2 32.3
21:40 1016 30 845 24.95 13.4 56.2 40 0.2 32.3
21:45 1016 30 845 24.95 13.4 56.1 41 0.3 32.6
21:50 1016 30 845 24.95 13.4 56.1 40 0.2 32.4
21:55 1015 29.97 845 24.95 13.4 56.1 41 0.4 32.8
22:00 1016 30 845 24.95 13.4 56.1 41 0.4 32.8
22:05 1016 30 845 24.95 13.3 56 41 0.5 32.9
22:10 1015 29.97 845 24.95 13.4 56.1 41 0.4 32.8
22:15 1016 30 845 24.95 13.4 56 41 0.6 33.1
22:20 1016 30 845 24.95 13.3 56 41 0.5 33
22:25 1016 30 845 24.95 13.4 56 41 0.6 33.1
22:30 1016 30 845 24.95 13.3 55.9 41 0.4 32.7
22:35 1015 29.97 845 24.95 13.4 56.2 41 0.4 32.7
22:40 1015 29.97 845 24.95 13.4 56.1 42 0.8 33.4
22:45 1015 29.97 845 24.95 13.2 55.8 43 0.9 33.7
22:50 1015 29.97 845 24.95 13 55.5 43 0.7 33.3
22:55 1015 29.97 845 24.95 12.8 55.1 43 0.7 33.3
23:00 1015 29.97 845 24.95 12.6 54.7 43 0.5 32.9
23:05 1015 29.97 845 24.95 12.6 54.7 43 0.5 32.9
23:10 1015 29.97 845 24.95 12.6 54.7 43 0.4 32.8
23:15 1015 29.97 845 24.95 12.6 54.7 44 0.9 33.6
23:20 1015 29.97 845 24.95 12.6 54.6 44 0.6 33.1
23:25 1015 29.97 845 24.95 12.6 54.8 44 0.8 33.5
23:30 1015 29.97 845 24.95 12.7 54.8 44 0.9 33.6
23:35 1015 29.97 845 24.95 12.6 54.7 45 1.1 34
23:40 1015 29.97 845 24.95 12.4 54.2 46 1.1 33.9
23:45 1016 30 845 24.95 12.1 53.9 46 0.9 33.6
23:50 1016 30 845 24.95 12.1 53.8 45 0.6 33.1
23:55 1016 30 845 24.95 12.1 53.8 46 0.8 33.4
24:00 1016 30 845 24.95 11.9 53.5 46 0.7 33.2